Time;durP1;ratioP1;P1;durP2;ratioP2;P2;SDS_P1;SDS_P2;PMS_P1;PMS_P2;Temp;Humidity;BMP_temperature;BMP_pressure;BME280_temperature;BME280_humidity;BME280_pressure;Samples;Min_cycle;Max_cycle;Signal;HPM_P1;HPM_P2
2021/12/17 00:01:09;;;;;;;13.53;11.87;;;;;;;3.79;99.59;100208.03;5057214;28;20201;-73
2021/12/17 00:03:45;;;;;;;12.40;10.60;;;;;;;3.76;99.48;100205.63;5057215;28;20194;-72
2021/12/17 00:06:18;;;;;;;15.30;11.93;;;;;;;3.71;99.33;100202.53;5056794;28;20320;-72
2021/12/17 00:08:49;;;;;;;16.43;11.10;;;;;;;3.72;99.10;100206.84;5057121;28;20190;-73
2021/12/17 00:11:16;;;;;;;16.93;12.10;;;;;;;3.90;98.78;100197.44;5056726;28;20225;-73
2021/12/17 00:13:45;;;;;;;16.13;11.23;;;;;;;4.01;96.55;100206.13;5056733;28;20508;-72
2021/12/17 00:16:17;;;;;;;14.37;11.43;;;;;;;3.87;97.99;100198.53;5057008;28;20197;-72
2021/12/17 00:19:01;;;;;;;13.33;10.53;;;;;;;3.92;97.31;100206.03;5056995;28;20280;-73
2021/12/17 00:48:50;;;;;;;13.50;10.17;;;;;;;3.94;99.34;100173.38;5056291;28;20244;-73
2021/12/17 00:51:55;;;;;;;13.97;10.73;;;;;;;3.86;98.77;100180.22;5056413;28;20216;-74
2021/12/17 00:54:32;;;;;;;15.17;10.20;;;;;;;3.89;99.59;100164.22;5056316;28;20236;-73
2021/12/17 00:57:05;;;;;;;12.60;10.93;;;;;;;3.90;99.82;100169.34;5056333;28;20212;-73
2021/12/17 00:59:32;;;;;;;12.70;10.47;;;;;;;3.94;100.00;100167.28;5056408;28;20189;-74
2021/12/17 01:02:03;;;;;;;14.80;11.17;;;;;;;3.96;99.72;100162.72;5056085;28;20495;-73
2021/12/17 01:04:29;;;;;;;13.70;10.20;;;;;;;3.97;99.73;100154.72;5056031;28;20644;-73
2021/12/17 01:06:56;;;;;;;13.17;10.43;;;;;;;3.97;99.67;100146.00;5056384;28;20197;-73
2021/12/17 01:09:26;;;;;;;14.73;11.13;;;;;;;4.02;99.91;100144.63;5057174;28;20193;-73
2021/12/17 01:11:56;;;;;;;15.33;12.03;;;;;;;4.00;98.96;100143.09;5055950;28;20241;-73
2021/12/17 01:14:23;;;;;;;14.20;11.47;;;;;;;4.05;98.97;100144.38;5056275;28;20232;-73
2021/12/17 01:16:52;;;;;;;14.83;11.53;;;;;;;4.31;97.61;100136.94;5056295;28;20189;-73
2021/12/17 01:19:28;;;;;;;17.83;12.27;;;;;;;4.35;96.86;100146.25;5056253;28;20190;-73
2021/12/17 01:22:12;;;;;;;14.13;11.20;;;;;;;4.39;97.47;100147.66;5056401;28;20200;-74
2021/12/17 01:24:45;;;;;;;15.47;11.43;;;;;;;4.46;96.52;100144.38;5056064;28;20225;-73
2021/12/17 01:35:27;;;;;;;16.03;12.20;;;;;;;4.24;98.92;100168.22;5055821;28;20208;-73
2021/12/17 01:41:12;;;;;;;18.73;12.43;;;;;;;4.19;99.28;100175.66;5056028;28;20485;-73
2021/12/17 01:43:44;;;;;;;15.20;11.20;;;;;;;4.21;100.00;100165.00;5056022;28;20229;-73
2021/12/17 01:46:14;;;;;;;14.07;11.10;;;;;;;4.31;100.00;100187.81;5055891;28;20291;-74
2021/12/17 01:48:58;;;;;;;14.83;11.07;;;;;;;4.25;99.63;100183.03;5058590;28;20215;-73
2021/12/17 01:57:00;;;;;;;15.00;11.27;;;;;;;4.16;99.84;100172.47;5059613;28;20240;-73
2021/12/17 01:59:34;;;;;;;15.20;11.80;;;;;;;4.03;100.00;100169.97;5059235;28;20509;-73
2021/12/17 02:02:06;;;;;;;16.30;11.97;;;;;;;4.06;100.00;100164.47;5059257;28;20589;-73
2021/12/17 02:04:34;;;;;;;14.03;11.57;;;;;;;4.04;100.00;100166.41;5059354;28;20222;-73
2021/12/17 02:07:01;;;;;;;14.67;11.50;;;;;;;4.10;100.00;100152.75;5059463;28;20232;-73
2021/12/17 02:20:39;;;;;;;17.77;11.73;;;;;;;4.04;100.00;100141.88;5058963;28;20180;-73
2021/12/17 02:28:56;;;;;;;15.13;12.50;;;;;;;4.05;100.00;100146.19;5058619;28;20296;-73
2021/12/17 02:31:26;;;;;;;15.03;12.23;;;;;;;4.06;100.00;100135.53;5058915;28;20210;-73
2021/12/17 02:33:56;;;;;;;15.47;10.93;;;;;;;4.12;100.00;100134.19;5058863;28;20198;-73
2021/12/17 02:36:26;;;;;;;15.00;11.53;;;;;;;4.13;100.00;100133.22;5059093;28;20205;-73
2021/12/17 02:39:05;;;;;;;18.17;11.90;;;;;;;4.13;100.00;100130.59;5058828;28;20193;-72
2021/12/17 02:46:59;;;;;;;16.87;12.10;;;;;;;4.29;100.00;100117.81;5058461;28;20482;-73
2021/12/17 02:49:29;;;;;;;15.07;11.97;;;;;;;4.36;100.00;100106.63;5058590;28;20238;-73
2021/12/17 02:51:56;;;;;;;18.90;11.87;;;;;;;4.38;100.00;100114.41;5058548;28;20267;-73
2021/12/17 02:54:23;;;;;;;15.63;12.03;;;;;;;4.39;100.00;100113.44;5058514;28;20275;-73
2021/12/17 02:56:50;;;;;;;15.53;12.37;;;;;;;4.42;99.86;100106.09;5058474;28;20193;-72
2021/12/17 02:59:16;;;;;;;16.87;12.27;;;;;;;4.60;99.52;100103.69;5057313;28;20190;-72
2021/12/17 03:01:45;;;;;;;17.30;12.57;;;;;;;4.50;99.17;100116.81;5058451;28;20190;-72
2021/12/17 03:04:13;;;;;;;16.20;12.30;;;;;;;4.42;100.00;100114.00;5058004;28;20256;-73
2021/12/17 03:06:41;;;;;;;16.80;12.73;;;;;;;4.37;100.00;100107.44;5058376;28;20185;-73
2021/12/17 03:09:09;;;;;;;14.90;11.80;;;;;;;4.35;100.00;100107.59;5058235;28;20229;-73
2021/12/17 03:11:35;;;;;;;15.37;12.33;;;;;;;4.42;100.00;100097.34;5057695;28;20529;-73
2021/12/17 03:14:02;;;;;;;15.80;13.07;;;;;;;4.40;100.00;100105.41;5058531;28;20193;-73
2021/12/17 03:16:33;;;;;;;17.73;12.67;;;;;;;4.39;100.00;100113.44;5058008;28;20190;-73
2021/12/17 03:19:07;;;;;;;15.87;13.00;;;;;;;4.45;100.00;100097.94;5057717;28;20196;-73
2021/12/17 03:24:18;;;;;;;15.10;13.50;;;;;;;4.40;100.00;100101.94;5057840;28;20208;-73
2021/12/17 03:26:46;;;;;;;16.23;12.90;;;;;;;4.41;100.00;100114.97;5057583;28;20402;-73
2021/12/17 03:29:14;;;;;;;17.50;13.00;;;;;;;4.42;100.00;100108.75;5058704;28;20272;-73
2021/12/17 03:31:40;;;;;;;19.47;14.17;;;;;;;4.42;100.00;100105.25;5057476;28;20620;-73
2021/12/17 03:34:17;;;;;;;19.23;14.17;;;;;;;4.57;100.00;100110.06;5057767;28;20190;-73
2021/12/17 03:36:45;;;;;;;23.90;16.70;;;;;;;4.54;100.00;100115.59;5057782;28;20199;-73
2021/12/17 03:39:12;;;;;;;18.67;13.30;;;;;;;4.50;100.00;100115.97;5057742;28;20196;-73
2021/12/17 03:41:39;;;;;;;18.40;12.70;;;;;;;4.48;100.00;100116.09;5057378;28;20186;-72
2021/12/17 03:44:08;;;;;;;15.83;12.70;;;;;;;4.48;100.00;100110.84;5057577;28;20563;-73
2021/12/17 03:46:35;;;;;;;16.30;13.20;;;;;;;4.50;100.00;100108.06;5057546;28;20186;-73
2021/12/17 03:49:02;;;;;;;16.40;13.53;;;;;;;4.50;100.00;100114.19;5057516;28;20509;-72
2021/12/17 03:51:29;;;;;;;15.77;13.07;;;;;;;4.56;100.00;100126.00;5057396;28;20209;-72
2021/12/17 03:53:58;;;;;;;17.57;13.80;;;;;;;4.52;100.00;100121.97;5057352;28;20190;-72
2021/12/17 03:56:26;;;;;;;19.47;15.17;;;;;;;4.53;100.00;100126.25;5057421;28;20205;-73
2021/12/17 03:58:54;;;;;;;24.67;15.80;;;;;;;4.65;100.00;100131.31;5057350;28;20189;-72
2021/12/17 04:01:22;;;;;;;20.13;15.20;;;;;;;4.61;100.00;100135.16;5056971;28;20225;-72
2021/12/17 04:03:48;;;;;;;19.23;14.93;;;;;;;4.54;100.00;100131.41;5057178;28;20189;-72
2021/12/17 04:06:15;;;;;;;20.67;16.63;;;;;;;4.55;100.00;100133.06;5057205;28;20193;-73
2021/12/17 04:08:41;;;;;;;24.23;18.43;;;;;;;4.51;100.00;100125.53;5056981;28;20217;-73
2021/12/17 04:11:16;;;;;;;20.37;16.73;;;;;;;4.55;100.00;100113.78;5056209;28;20204;-72
2021/12/17 04:13:42;;;;;;;21.83;17.67;;;;;;;4.56;100.00;100123.38;5057052;28;20193;-73
2021/12/17 04:16:11;;;;;;;22.53;18.10;;;;;;;4.55;100.00;100121.69;5056912;28;20244;-73
2021/12/17 04:18:41;;;;;;;23.50;18.37;;;;;;;4.76;100.00;100120.69;5056917;28;20209;-73
2021/12/17 04:21:13;;;;;;;21.00;16.93;;;;;;;4.64;100.00;100116.47;5056814;28;20190;-72
2021/12/17 04:23:43;;;;;;;20.90;17.00;;;;;;;4.65;100.00;100118.13;5056826;28;20185;-73
2021/12/17 04:26:10;;;;;;;22.27;15.93;;;;;;;4.65;100.00;100125.22;5056395;28;20228;-73
2021/12/17 04:28:42;;;;;;;18.57;15.30;;;;;;;4.67;100.00;100115.38;5056728;28;20199;-73
2021/12/17 04:31:09;;;;;;;16.87;14.63;;;;;;;4.61;100.00;100121.19;5056647;28;20189;-73
2021/12/17 04:33:38;;;;;;;15.83;13.03;;;;;;;4.82;100.00;100129.84;5056489;28;20474;-72
2021/12/17 04:36:04;;;;;;;16.93;13.47;;;;;;;4.67;100.00;100126.75;5056419;28;20319;-72
2021/12/17 04:38:31;;;;;;;13.77;12.17;;;;;;;4.67;100.00;100116.22;5056424;28;20197;-72
2021/12/17 04:41:11;;;;;;;14.33;12.13;;;;;;;4.65;100.00;100096.25;5056501;28;20199;-72
2021/12/17 04:43:46;;;;;;;15.90;13.57;;;;;;;4.54;100.00;100078.72;5056935;28;20255;-73
2021/12/17 04:46:23;;;;;;;15.63;13.30;;;;;;;4.59;100.00;100096.75;5056388;28;20200;-73
2021/12/17 04:57:28;;;;;;;17.03;13.80;;;;;;;4.87;100.00;100096.03;5056381;28;20523;-72
2021/12/17 05:00:03;;;;;;;16.90;13.57;;;;;;;4.71;100.00;100100.97;5056255;28;20205;-72
2021/12/17 05:02:31;;;;;;;17.70;14.67;;;;;;;4.62;100.00;100102.59;5056124;28;20195;-73
2021/12/17 05:04:58;;;;;;;18.67;14.50;;;;;;;4.67;100.00;100096.94;5056533;28;20225;-73
2021/12/17 05:07:25;;;;;;;18.03;14.80;;;;;;;4.70;100.00;100097.50;5056249;28;20280;-72
2021/12/17 05:10:00;;;;;;;18.10;14.90;;;;;;;4.75;100.00;100102.38;5055923;28;20235;-73
2021/12/17 05:18:24;;;;;;;20.40;15.70;;;;;;;4.68;100.00;100085.44;5014753;28;20224;-73
2021/12/17 05:20:55;;;;;;;18.70;15.27;;;;;;;4.63;100.00;100079.72;5041951;28;20201;-73
2021/12/17 05:23:27;;;;;;;17.50;14.77;;;;;;;4.67;100.00;100084.59;5058157;28;20189;-72
2021/12/17 05:25:56;;;;;;;20.70;15.63;;;;;;;4.64;100.00;100084.00;5059667;28;20231;-73
2021/12/17 05:28:22;;;;;;;19.27;15.00;;;;;;;4.66;100.00;100092.63;5059966;28;20196;-73
2021/12/17 05:30:50;;;;;;;20.83;15.27;;;;;;;4.64;100.00;100098.03;5059811;28;20196;-73
2021/12/17 05:33:19;;;;;;;19.97;14.90;;;;;;;4.67;100.00;100099.56;5059300;28;20674;-73
2021/12/17 05:35:46;;;;;;;17.20;15.33;;;;;;;4.68;100.00;100090.69;5059361;28;20644;-73
2021/12/17 05:38:14;;;;;;;18.17;14.93;;;;;;;4.69;100.00;100087.94;5059624;28;20474;-72
2021/12/17 05:40:41;;;;;;;20.63;15.07;;;;;;;4.69;100.00;100082.66;5059562;28;20272;-73
2021/12/17 05:43:08;;;;;;;19.53;15.17;;;;;;;4.65;100.00;100072.53;5059366;28;20189;-72
2021/12/17 05:45:47;;;;;;;21.17;15.77;;;;;;;4.66;100.00;100082.09;5058987;28;20297;-72
2021/12/17 05:48:22;;;;;;;17.40;15.37;;;;;;;4.65;100.00;100089.16;5059058;28;20284;-72
2021/12/17 05:50:52;;;;;;;17.57;14.93;;;;;;;4.66;100.00;100087.38;5059503;28;20521;-73
2021/12/17 05:53:19;;;;;;;16.57;14.60;;;;;;;4.66;100.00;100082.91;5059288;28;20216;-73
2021/12/17 05:55:46;;;;;;;18.70;14.93;;;;;;;4.66;100.00;100087.38;5058955;28;20244;-72
2021/12/17 05:58:12;;;;;;;18.93;15.60;;;;;;;4.67;100.00;100078.50;5059914;28;20185;-72
2021/12/17 06:00:41;;;;;;;18.47;15.03;;;;;;;4.70;100.00;100072.97;5059044;28;20200;-72
2021/12/17 06:03:08;;;;;;;16.40;14.60;;;;;;;4.70;100.00;100067.69;5058649;28;20281;-73
2021/12/17 06:05:35;;;;;;;18.87;14.73;;;;;;;4.67;100.00;100074.06;5058708;28;20232;-73
2021/12/17 06:08:01;;;;;;;18.97;15.13;;;;;;;4.71;100.00;100078.06;5058458;28;20490;-73
2021/12/17 06:10:28;;;;;;;19.60;14.83;;;;;;;4.67;100.00;100065.31;5058507;28;20201;-73
2021/12/17 06:12:54;;;;;;;16.40;13.97;;;;;;;4.67;100.00;100075.88;5058897;28;20219;-73
2021/12/17 06:15:22;;;;;;;18.43;13.60;;;;;;;4.69;100.00;100084.44;5058682;28;20228;-73
2021/12/17 06:17:50;;;;;;;17.33;14.70;;;;;;;4.70;100.00;100076.41;5058702;28;20190;-73
2021/12/17 06:20:19;;;;;;;19.60;14.67;;;;;;;4.70;100.00;100068.50;5058541;28;20721;-73
2021/12/17 06:22:46;;;;;;;16.77;13.63;;;;;;;4.68;100.00;100081.00;5058636;28;20196;-73
2021/12/17 06:25:12;;;;;;;16.60;14.10;;;;;;;4.76;100.00;100093.50;5058173;28;20232;-73
2021/12/17 06:27:40;;;;;;;17.90;13.97;;;;;;;4.79;100.00;100099.34;5058127;28;20190;-73
2021/12/17 06:30:09;;;;;;;14.73;11.63;;;;;;;4.90;100.00;100101.03;5058310;28;20194;-73
2021/12/17 06:32:36;;;;;;;14.37;12.63;;;;;;;4.90;100.00;100104.53;5058275;28;20213;-73
2021/12/17 06:35:04;;;;;;;13.87;11.13;;;;;;;5.11;98.71;100107.09;5057756;28;20221;-73
2021/12/17 06:37:31;;;;;;;12.27;10.73;;;;;;;5.21;97.16;100098.22;5057910;28;20193;-73
2021/12/17 06:39:58;;;;;;;16.07;11.87;;;;;;;4.95;99.00;100090.94;5058301;28;20587;-73
2021/12/17 06:42:25;;;;;;;12.83;11.43;;;;;;;4.93;98.92;100098.97;5058303;28;20188;-73
2021/12/17 06:44:56;;;;;;;14.00;12.17;;;;;;;4.88;100.00;100103.81;5057375;28;20722;-73
2021/12/17 06:47:29;;;;;;;15.67;12.40;;;;;;;4.91;99.49;100097.44;5057857;28;20194;-73
2021/12/17 06:50:01;;;;;;;14.23;11.77;;;;;;;5.06;98.06;100091.66;5057369;28;20232;-73
2021/12/17 06:55:31;;;;;;;14.67;11.13;;;;;;;5.27;96.72;100117.94;5057747;28;20639;-73
2021/12/17 07:00:59;;;;;;;11.77;9.30;;;;;;;5.05;96.17;100116.38;5057604;28;20222;-74
2021/12/17 07:06:17;;;;;;;12.60;11.13;;;;;;;5.18;96.42;100126.66;5057619;28;20294;-73
2021/12/17 07:11:48;;;;;;;12.83;11.37;;;;;;;5.16;96.43;100132.06;5057461;28;20197;-73
2021/12/17 07:17:22;;;;;;;14.60;11.27;;;;;;;4.94;97.32;100128.81;5057524;28;20531;-73
2021/12/17 07:22:46;;;;;;;12.27;10.27;;;;;;;5.11;96.75;100144.81;5057229;28;20242;-73
2021/12/17 07:28:13;;;;;;;11.57;9.60;;;;;;;4.95;96.48;100141.00;5055359;28;20188;-73
2021/12/17 07:33:40;;;;;;;11.70;9.77;;;;;;;4.90;96.37;100141.44;5055122;28;20516;-73
2021/12/17 07:36:10;;;;;;;12.57;10.63;;;;;;;4.84;96.91;100136.66;5055302;28;20287;-73
2021/12/17 07:38:39;;;;;;;12.90;10.63;;;;;;;4.84;96.29;100141.13;5055146;28;20193;-73
2021/12/17 07:41:06;;;;;;;12.27;9.80;;;;;;;4.84;95.59;100144.56;5055599;28;20222;-73
2021/12/17 07:43:38;;;;;;;13.20;10.07;;;;;;;4.85;95.83;100142.78;5054812;28;20185;-73
2021/12/17 07:46:07;;;;;;;13.03;10.57;;;;;;;4.70;96.77;100150.19;5055798;28;20308;-73
2021/12/17 07:48:34;;;;;;;13.20;10.07;;;;;;;4.75;95.46;100142.72;5056800;28;20189;-73
2021/12/17 07:51:02;;;;;;;12.37;9.80;;;;;;;4.72;95.08;100136.91;5057054;28;20192;-73
2021/12/17 07:53:31;;;;;;;10.57;9.47;;;;;;;4.68;95.68;100138.13;5056757;28;20683;-73
2021/12/17 07:56:00;;;;;;;12.80;10.50;;;;;;;4.56;95.84;100137.38;5056735;28;20675;-73
2021/12/17 07:58:27;;;;;;;11.50;10.30;;;;;;;4.42;97.06;100135.06;5056894;28;20204;-73
2021/12/17 08:00:53;;;;;;;12.87;10.63;;;;;;;4.38;97.03;100146.00;5056959;28;20194;-73
2021/12/17 08:03:20;;;;;;;11.77;9.87;;;;;;;4.34;97.51;100148.03;5056529;28;20577;-73
2021/12/17 08:05:46;;;;;;;11.47;10.03;;;;;;;4.33;97.35;100138.47;5056748;28;20221;-73
2021/12/17 08:08:13;;;;;;;11.87;9.93;;;;;;;4.30;97.35;100151.09;5056857;28;20193;-73
2021/12/17 08:10:39;;;;;;;11.43;9.70;;;;;;;4.30;97.23;100148.44;5056582;28;20212;-73
2021/12/17 08:13:08;;;;;;;11.30;10.10;;;;;;;4.31;97.35;100150.97;5056375;28;20225;-73
2021/12/17 08:15:42;;;;;;;11.17;9.77;;;;;;;4.34;97.05;100150.69;5056608;28;20229;-73
2021/12/17 08:18:42;;;;;;;10.93;9.70;;;;;;;4.40;96.54;100151.97;5056323;28;20592;-74
2021/12/17 08:24:47;;;;;;;10.80;9.40;;;;;;;4.41;95.83;100146.56;5025987;28;20241;-73
2021/12/17 08:27:07;;;;;;;9.20;8.27;;;;;;;4.43;95.36;100155.16;5055850;28;20225;-73
2021/12/17 08:29:51;;;;;;;10.27;9.17;;;;;;;4.49;95.06;100145.94;5056422;28;20284;-73
2021/12/17 08:32:18;;;;;;;9.30;8.07;;;;;;;4.54;94.40;100149.84;5056217;28;20287;-73
2021/12/17 08:34:44;;;;;;;8.90;8.00;;;;;;;4.57;94.27;100151.38;5056222;28;20670;-73
2021/12/17 08:37:10;;;;;;;8.87;7.97;;;;;;;4.61;93.88;100158.06;5056393;28;20500;-74
2021/12/17 08:39:38;;;;;;;8.93;7.57;;;;;;;4.62;93.37;100149.19;5055984;28;20508;-73
2021/12/17 08:42:05;;;;;;;10.27;7.73;;;;;;;4.79;91.86;100152.03;5055972;28;20585;-73
2021/12/17 08:44:31;;;;;;;8.37;7.00;;;;;;;4.77;92.52;100156.63;5055731;28;20221;-73
2021/12/17 08:46:58;;;;;;;7.73;6.40;;;;;;;4.82;90.82;100161.47;5055896;28;20480;-72
2021/12/17 08:49:24;;;;;;;7.43;6.63;;;;;;;4.91;90.16;100165.97;5056048;28;20280;-73
2021/12/17 08:51:51;;;;;;;7.53;6.60;;;;;;;4.88;91.12;100161.78;5055944;28;20189;-73
2021/12/17 08:54:17;;;;;;;7.00;6.30;;;;;;;4.86;91.27;100161.09;5055930;28;20236;-73
2021/12/17 08:56:47;;;;;;;9.23;7.00;;;;;;;4.92;91.23;100159.72;5054976;28;20603;-73
2021/12/17 08:59:16;;;;;;;7.47;6.77;;;;;;;4.98;90.53;100160.03;5056047;28;20221;-73
2021/12/17 09:01:43;;;;;;;8.00;6.23;;;;;;;5.03;89.63;100157.00;5055574;28;20253;-73
2021/12/17 09:04:10;;;;;;;6.80;5.90;;;;;;;5.02;89.12;100158.78;5056069;28;20217;-73
2021/12/17 09:06:36;;;;;;;7.87;6.40;;;;;;;5.02;89.63;100163.25;5056128;28;20197;-73
2021/12/17 09:09:04;;;;;;;6.60;6.00;;;;;;;5.12;88.93;100164.13;5055741;28;20499;-74
2021/12/17 09:11:31;;;;;;;6.10;5.50;;;;;;;5.19;89.03;100154.69;5055596;28;20215;-73
2021/12/17 09:14:02;;;;;;;6.70;5.97;;;;;;;5.29;88.98;100155.56;5055546;28;20229;-73
2021/12/17 09:16:28;;;;;;;6.53;5.83;;;;;;;5.35;86.97;100155.03;5055781;28;20205;-73
2021/12/17 09:18:56;;;;;;;8.13;5.87;;;;;;;5.39;87.08;100156.44;5055937;28;20190;-73
2021/12/17 09:21:23;;;;;;;6.20;5.60;;;;;;;5.47;86.37;100153.94;5055492;28;20189;-73
2021/12/17 09:23:50;;;;;;;7.13;6.40;;;;;;;5.49;86.43;100155.47;5055761;28;20194;-73
2021/12/17 09:26:18;;;;;;;6.57;5.90;;;;;;;5.45;85.97;100150.59;5056503;28;20190;-73
2021/12/17 09:28:44;;;;;;;7.10;5.80;;;;;;;5.61;84.88;100150.91;5055811;28;20193;-73
2021/12/17 09:31:12;;;;;;;7.53;6.13;;;;;;;5.70;84.10;100152.75;5056288;28;20196;-73
2021/12/17 09:33:47;;;;;;;7.20;5.77;;;;;;;5.94;83.73;100143.47;5055684;28;20217;-73
2021/12/17 09:36:14;;;;;;;6.60;5.90;;;;;;;6.02;82.56;100146.22;5055654;28;20530;-73
2021/12/17 09:38:40;;;;;;;5.80;5.17;;;;;;;6.03;82.84;100149.72;5055771;28;20189;-73
2021/12/17 09:41:08;;;;;;;6.73;5.57;;;;;;;6.06;81.68;100149.44;5055396;28;20577;-73
2021/12/17 09:43:36;;;;;;;6.47;5.37;;;;;;;6.06;82.25;100154.72;5055168;28;20192;-73
2021/12/17 09:46:06;;;;;;;6.10;5.50;;;;;;;6.04;82.16;100161.94;5055484;28;20225;-73
2021/12/17 09:48:33;;;;;;;6.40;5.63;;;;;;;5.94;82.47;100155.81;5055585;28;20189;-73
2021/12/17 09:51:01;;;;;;;5.97;5.23;;;;;;;6.30;81.05;100152.47;5055499;28;20186;-73
2021/12/17 09:53:28;;;;;;;6.27;5.57;;;;;;;6.23;81.40;100159.28;5056386;28;20473;-73
2021/12/17 09:55:54;;;;;;;5.93;5.37;;;;;;;6.09;81.72;100154.44;5055573;28;20225;-73
2021/12/17 09:58:20;;;;;;;6.30;5.70;;;;;;;6.07;81.14;100159.03;5055521;28;20193;-74
2021/12/17 10:00:47;;;;;;;5.90;5.30;;;;;;;5.98;82.46;100151.94;5055158;28;20472;-73
2021/12/17 10:03:13;;;;;;;7.20;5.90;;;;;;;5.94;81.79;100153.19;5055241;28;20603;-73
2021/12/17 10:05:41;;;;;;;6.67;5.47;;;;;;;6.16;81.44;100158.19;5055272;28;20312;-73
2021/12/17 10:08:20;;;;;;;6.80;5.87;;;;;;;6.08;81.36;100150.97;5055765;28;20190;-73
2021/12/17 10:10:55;;;;;;;7.97;6.30;;;;;;;6.04;81.89;100144.31;5058855;28;20623;-73
2021/12/17 10:13:28;;;;;;;8.23;6.50;;;;;;;6.13;81.41;100138.19;5058837;28;20228;-73
2021/12/17 10:16:01;;;;;;;7.10;6.40;;;;;;;6.11;80.60;100137.47;5058892;28;20232;-73
2021/12/17 10:18:54;;;;;;;9.03;6.53;;;;;;;6.09;80.76;100147.34;5058834;28;20189;-73
2021/12/17 10:21:22;;;;;;;7.87;6.57;;;;;;;6.16;81.43;100135.25;5058564;28;20593;-73
2021/12/17 10:23:51;;;;;;;7.07;6.30;;;;;;;6.19;79.62;100139.44;5058536;28;20193;-73
2021/12/17 10:26:20;;;;;;;7.87;6.40;;;;;;;6.26;80.79;100138.72;5058922;28;20193;-74
2021/12/17 10:29:02;;;;;;;7.83;7.03;;;;;;;6.17;80.87;100134.28;5058675;28;20189;-73
2021/12/17 10:31:30;;;;;;;9.50;6.60;;;;;;;6.44;78.98;100138.81;5058737;28;20190;-73
2021/12/17 10:33:59;;;;;;;9.03;6.47;;;;;;;6.42;79.53;100138.16;5058632;28;20213;-73
2021/12/17 10:36:32;;;;;;;7.03;6.33;;;;;;;6.51;80.25;100145.22;5058281;28;20565;-73
2021/12/17 10:38:59;;;;;;;8.50;6.87;;;;;;;6.65;79.12;100155.34;5058670;28;20247;-73
2021/12/17 10:41:28;;;;;;;7.97;7.17;;;;;;;6.54;78.78;100152.84;5058256;28;20256;-73
2021/12/17 10:44:00;;;;;;;8.70;7.80;;;;;;;6.43;80.19;100143.25;5058271;28;20193;-73
2021/12/17 10:46:29;;;;;;;8.90;8.00;;;;;;;6.46;80.43;100145.63;5058312;28;20189;-73
2021/12/17 10:49:02;;;;;;;8.63;7.83;;;;;;;6.57;79.80;100149.91;5058321;28;20276;-74
2021/12/17 10:51:46;;;;;;;8.50;7.60;;;;;;;6.51;80.37;100142.56;5057956;28;20663;-73
2021/12/17 10:54:28;;;;;;;8.00;7.20;;;;;;;6.62;80.31;100151.16;5058037;28;20225;-73
2021/12/17 10:56:56;;;;;;;7.70;6.87;;;;;;;6.66;80.20;100151.72;5057605;28;20194;-73
2021/12/17 10:59:28;;;;;;;8.03;7.20;;;;;;;6.61;81.34;100146.03;5057545;28;20527;-73
2021/12/17 11:02:05;;;;;;;10.13;7.30;;;;;;;6.73;81.32;100144.84;5057828;28;20213;-72
2021/12/17 11:04:37;;;;;;;7.53;6.60;;;;;;;6.64;80.37;100145.72;5057636;28;20275;-73
2021/12/17 11:07:06;;;;;;;9.03;7.50;;;;;;;6.49;80.37;100153.28;5057781;28;20205;-73
2021/12/17 11:09:55;;;;;;;7.77;6.90;;;;;;;6.68;79.33;100150.59;5057752;28;20196;-74
2021/12/17 11:12:32;;;;;;;8.10;6.73;;;;;;;6.65;80.34;100152.69;5057385;28;20284;-73
2021/12/17 11:15:19;;;;;;;8.90;7.50;;;;;;;6.73;79.30;100150.13;5057283;28;20225;-73
2021/12/17 11:17:51;;;;;;;7.67;6.93;;;;;;;6.57;80.28;100150.78;5057542;28;20221;-74
2021/12/17 11:20:24;;;;;;;8.40;6.87;;;;;;;6.62;80.90;100148.53;5056447;28;20225;-73
2021/12/17 11:22:53;;;;;;;8.13;7.33;;;;;;;6.59;80.40;100140.88;5057234;28;20577;-73
2021/12/17 11:25:21;;;;;;;7.63;6.93;;;;;;;6.56;80.27;100135.88;5057303;28;20225;-73
2021/12/17 11:27:48;;;;;;;7.30;6.60;;;;;;;6.52;79.37;100128.38;5057099;28;20221;-74
2021/12/17 11:30:18;;;;;;;6.63;6.03;;;;;;;6.59;79.32;100124.16;5057907;28;20198;-74
2021/12/17 11:32:46;;;;;;;8.47;7.47;;;;;;;6.61;79.65;100122.22;5057501;28;20573;-73
2021/12/17 11:35:16;;;;;;;9.23;7.33;;;;;;;6.58;79.38;100128.66;5057399;28;20238;-74
2021/12/17 11:37:45;;;;;;;10.07;7.77;;;;;;;6.32;81.17;100121.44;5057787;28;20194;-74
2021/12/17 11:40:23;;;;;;;8.60;7.77;;;;;;;6.48;80.93;100121.72;5057301;28;20190;-74
2021/12/17 11:43:40;;;;;;;8.97;7.70;;;;;;;6.37;81.40;100130.63;5057337;28;20512;-74
2021/12/17 11:46:12;;;;;;;10.97;7.60;;;;;;;6.48;82.20;100127.84;5055000;28;20229;-74
2021/12/17 11:48:38;;;;;;;8.53;7.47;;;;;;;6.46;81.58;100134.22;5055013;28;20190;-74
2021/12/17 11:51:14;;;;;;;8.43;7.57;;;;;;;6.50;81.66;100125.88;5055821;28;20201;-73
2021/12/17 11:54:03;;;;;;;8.60;7.47;;;;;;;6.54;81.68;100127.25;5056843;28;20212;-74
2021/12/17 11:56:52;;;;;;;9.90;7.30;;;;;;;6.64;81.32;100130.69;5052645;28;20557;-74
2021/12/17 11:59:28;;;;;;;7.30;6.57;;;;;;;6.54;80.91;100110.56;5056956;28;20189;-73
2021/12/17 12:02:19;;;;;;;9.97;6.73;;;;;;;6.73;80.14;100111.34;5056751;28;20189;-74
2021/12/17 12:04:48;;;;;;;8.40;6.57;;;;;;;6.73;81.35;100111.34;5056525;28;20528;-73
2021/12/17 12:07:20;;;;;;;7.13;6.43;;;;;;;6.79;81.25;100121.31;5056698;28;20194;-73
2021/12/17 12:09:57;;;;;;;6.63;6.03;;;;;;;6.91;79.25;100112.22;5056635;28;20197;-74
2021/12/17 12:12:28;;;;;;;6.93;6.23;;;;;;;6.80;79.67;100101.84;5056279;28;20216;-73
2021/12/17 12:15:15;;;;;;;7.00;6.30;;;;;;;6.77;80.77;100109.22;5055945;28;20665;-74
2021/12/17 12:18:06;;;;;;;7.07;5.53;;;;;;;6.78;80.60;100100.34;5056257;28;20205;-74
2021/12/17 12:20:47;;;;;;;6.03;5.43;;;;;;;6.83;79.43;100103.38;5056324;28;20185;-74
2021/12/17 12:23:23;;;;;;;6.33;5.73;;;;;;;6.96;79.19;100117.91;5056222;28;20193;-74
2021/12/17 12:26:04;;;;;;;7.10;6.40;;;;;;;6.90;79.39;100112.38;5056245;28;20220;-74
2021/12/17 12:28:46;;;;;;;7.03;6.00;;;;;;;6.99;79.68;100119.44;5056522;28;20190;-73
2021/12/17 12:31:18;;;;;;;6.73;6.13;;;;;;;7.08;79.03;100115.91;5055953;28;20185;-73
2021/12/17 12:34:03;;;;;;;8.03;6.17;;;;;;;7.04;79.13;100090.72;5056063;28;20220;-73
2021/12/17 12:37:03;;;;;;;6.93;6.23;;;;;;;6.96;79.78;100101.19;5056048;28;20212;-74
2021/12/17 12:39:38;;;;;;;6.47;5.80;;;;;;;7.05;79.93;100081.81;5056076;28;20225;-73
2021/12/17 12:42:12;;;;;;;6.60;5.97;;;;;;;7.15;79.33;100085.25;5055804;28;20662;-74
2021/12/17 12:44:47;;;;;;;8.13;6.37;;;;;;;7.13;79.27;100082.75;5056116;28;20528;-74
2021/12/17 12:47:26;;;;;;;7.83;7.03;;;;;;;7.03;79.76;100081.13;5056342;28;20236;-73
2021/12/17 12:50:15;;;;;;;6.37;5.77;;;;;;;7.17;79.31;100080.63;5055823;28;20573;-74
2021/12/17 12:52:51;;;;;;;9.50;7.17;;;;;;;7.23;79.64;100077.38;5055530;28;20208;-73
2021/12/17 12:55:37;;;;;;;7.67;6.73;;;;;;;7.19;80.41;100073.41;5055932;28;20229;-74
2021/12/17 12:58:11;;;;;;;8.33;7.13;;;;;;;7.23;79.94;100093.25;5055810;28;20205;-73
2021/12/17 13:00:58;;;;;;;7.80;7.10;;;;;;;7.26;79.74;100083.25;5056085;28;20192;-74
2021/12/17 13:03:38;;;;;;;8.90;7.40;;;;;;;7.14;80.77;100078.28;5055627;28;20202;-73
2021/12/17 13:06:16;;;;;;;8.13;7.07;;;;;;;7.20;79.45;100078.53;5055517;28;20275;-73
2021/12/17 13:08:56;;;;;;;7.90;7.10;;;;;;;7.20;79.87;100085.66;5055615;28;20193;-74
2021/12/17 13:11:29;;;;;;;10.03;8.00;;;;;;;7.09;80.40;100093.75;5055879;28;20244;-74
2021/12/17 13:13:59;;;;;;;7.43;6.73;;;;;;;7.19;80.03;100095.38;5055023;28;20543;-74
2021/12/17 13:16:43;;;;;;;7.93;6.90;;;;;;;7.09;80.46;100091.13;5055679;28;20186;-74
2021/12/17 13:22:25;;;;;;;7.57;6.87;;;;;;;7.18;80.47;100098.16;5055361;28;20177;-74
2021/12/17 13:24:51;;;;;;;8.00;7.00;;;;;;;7.37;80.46;100098.88;5055141;28;20217;-73
2021/12/17 13:27:17;;;;;;;7.20;6.50;;;;;;;7.32;80.16;100097.66;5055482;28;20196;-74
2021/12/17 13:29:45;;;;;;;11.40;6.77;;;;;;;7.34;80.52;100093.06;5055623;28;20197;-73
2021/12/17 13:32:13;;;;;;;9.00;7.00;;;;;;;7.29;80.33;100090.84;5055690;28;20216;-74
2021/12/17 13:34:51;;;;;;;10.47;7.00;;;;;;;7.23;80.35;100080.03;5055449;28;20268;-74